sensor_id;sensor_type;location;lat;lon;timestamp;P1;P2;P0
73973;PMS5003;62336;-26.094;27.994;2023-08-06T00:00:25;44;43;
73973;PMS5003;62336;-26.094;27.994;2023-08-06T00:02:51;39;38;
73973;PMS5003;62336;-26.094;27.994;2023-08-06T00:05:16;43;41;
73973;PMS5003;62336;-26.094;27.994;2023-08-06T00:07:42;42;39;
73973;PMS5003;62336;-26.094;27.994;2023-08-06T00:10:08;42;39;
73973;PMS5003;62336;-26.094;27.994;2023-08-06T00:12:33;44;42;
73973;PMS5003;62336;-26.094;27.994;2023-08-06T00:14:59;42;41;
73973;PMS5003;62336;-26.094;27.994;2023-08-06T00:17:24;39;38;
73973;PMS5003;62336;-26.094;27.994;2023-08-06T00:19:49;40;40;
73973;PMS5003;62336;-26.094;27.994;2023-08-06T00:22:15;43;41;
73973;PMS5003;62336;-26.094;27.994;2023-08-06T00:24:41;47;43;
73973;PMS5003;62336;-26.094;27.994;2023-08-06T00:27:06;44;41;
73973;PMS5003;62336;-26.094;27.994;2023-08-06T00:29:31;47;45;
73973;PMS5003;62336;-26.094;27.994;2023-08-06T00:31:56;42;40;
73973;PMS5003;62336;-26.094;27.994;2023-08-06T00:34:22;46;45;
73973;PMS5003;62336;-26.094;27.994;2023-08-06T00:36:47;46;46;
73973;PMS5003;62336;-26.094;27.994;2023-08-06T00:39:12;47;43;
73973;PMS5003;62336;-26.094;27.994;2023-08-06T00:41:38;46;43;
73973;PMS5003;62336;-26.094;27.994;2023-08-06T00:44:03;50;47;
73973;PMS5003;62336;-26.094;27.994;2023-08-06T00:46:29;50;45;
73973;PMS5003;62336;-26.094;27.994;2023-08-06T00:48:54;47;45;
73973;PMS5003;62336;-26.094;27.994;2023-08-06T00:51:19;43;42;
73973;PMS5003;62336;-26.094;27.994;2023-08-06T00:53:44;44;41;
73973;PMS5003;62336;-26.094;27.994;2023-08-06T00:56:09;45;43;
73973;PMS5003;62336;-26.094;27.994;2023-08-06T00:58:35;42;41;
73973;PMS5003;62336;-26.094;27.994;2023-08-06T01:01:00;43;41;
73973;PMS5003;62336;-26.094;27.994;2023-08-06T01:03:25;44;42;
73973;PMS5003;62336;-26.094;27.994;2023-08-06T01:05:50;41;39;
73973;PMS5003;62336;-26.094;27.994;2023-08-06T01:08:19;42;42;
73973;PMS5003;62336;-26.094;27.994;2023-08-06T01:10:44;41;40;
73973;PMS5003;62336;-26.094;27.994;2023-08-06T01:13:08;42;40;
73973;PMS5003;62336;-26.094;27.994;2023-08-06T01:15:32;52;48;
73973;PMS5003;62336;-26.094;27.994;2023-08-06T01:17:57;42;40;
73973;PMS5003;62336;-26.094;27.994;2023-08-06T01:20:27;45;44;
73973;PMS5003;62336;-26.094;27.994;2023-08-06T01:22:48;43;42;
73973;PMS5003;62336;-26.094;27.994;2023-08-06T01:25:13;46;44;
73973;PMS5003;62336;-26.094;27.994;2023-08-06T01:27:42;44;41;
73973;PMS5003;62336;-26.094;27.994;2023-08-06T01:30:06;41;41;
73973;PMS5003;62336;-26.094;27.994;2023-08-06T01:32:30;41;40;
73973;PMS5003;62336;-26.094;27.994;2023-08-06T01:34:56;47;43;
73973;PMS5003;62336;-26.094;27.994;2023-08-06T01:37:21;48;43;
73973;PMS5003;62336;-26.094;27.994;2023-08-06T01:39:46;40;36;
73973;PMS5003;62336;-26.094;27.994;2023-08-06T01:42:12;39;38;
73973;PMS5003;62336;-26.094;27.994;2023-08-06T01:44:37;41;40;
73973;PMS5003;62336;-26.094;27.994;2023-08-06T01:47:03;38;36;
73973;PMS5003;62336;-26.094;27.994;2023-08-06T01:49:28;41;40;
73973;PMS5003;62336;-26.094;27.994;2023-08-06T01:51:53;35;35;
73973;PMS5003;62336;-26.094;27.994;2023-08-06T01:54:18;37;33;
73973;PMS5003;62336;-26.094;27.994;2023-08-06T01:56:44;34;34;
73973;PMS5003;62336;-26.094;27.994;2023-08-06T01:59:10;40;36;
73973;PMS5003;62336;-26.094;27.994;2023-08-06T02:01:35;33;32;
73973;PMS5003;62336;-26.094;27.994;2023-08-06T02:04:00;35;35;
73973;PMS5003;62336;-26.094;27.994;2023-08-06T02:06:25;39;36;
73973;PMS5003;62336;-26.094;27.994;2023-08-06T02:08:57;34;32;
73973;PMS5003;62336;-26.094;27.994;2023-08-06T02:11:17;36;36;
73973;PMS5003;62336;-26.094;27.994;2023-08-06T02:13:42;30;30;
73973;PMS5003;62336;-26.094;27.994;2023-08-06T02:16:07;32;31;
73973;PMS5003;62336;-26.094;27.994;2023-08-06T02:18:32;38;36;
73973;PMS5003;62336;-26.094;27.994;2023-08-06T02:20:58;31;30;
73973;PMS5003;62336;-26.094;27.994;2023-08-06T02:23:26;32;32;
73973;PMS5003;62336;-26.094;27.994;2023-08-06T02:25:53;31;30;
73973;PMS5003;62336;-26.094;27.994;2023-08-06T02:28:14;33;32;
73973;PMS5003;62336;-26.094;27.994;2023-08-06T02:30:40;32;31;
73973;PMS5003;62336;-26.094;27.994;2023-08-06T02:33:05;36;34;
73973;PMS5003;62336;-26.094;27.994;2023-08-06T02:35:31;29;29;
73973;PMS5003;62336;-26.094;27.994;2023-08-06T02:37:57;37;32;
73973;PMS5003;62336;-26.094;27.994;2023-08-06T02:40:22;30;29;
73973;PMS5003;62336;-26.094;27.994;2023-08-06T02:42:47;31;29;
73973;PMS5003;62336;-26.094;27.994;2023-08-06T02:45:13;30;27;
73973;PMS5003;62336;-26.094;27.994;2023-08-06T02:47:39;37;32;
73973;PMS5003;62336;-26.094;27.994;2023-08-06T02:50:04;29;27;
73973;PMS5003;62336;-26.094;27.994;2023-08-06T02:52:30;29;28;
73973;PMS5003;62336;-26.094;27.994;2023-08-06T02:54:55;24;24;
73973;PMS5003;62336;-26.094;27.994;2023-08-06T02:57:20;25;24;
73973;PMS5003;62336;-26.094;27.994;2023-08-06T02:59:46;24;23;
73973;PMS5003;62336;-26.094;27.994;2023-08-06T03:02:11;26;25;
73973;PMS5003;62336;-26.094;27.994;2023-08-06T03:04:36;29;27;
73973;PMS5003;62336;-26.094;27.994;2023-08-06T03:07:01;26;25;
73973;PMS5003;62336;-26.094;27.994;2023-08-06T03:09:27;29;28;
73973;PMS5003;62336;-26.094;27.994;2023-08-06T03:11:53;25;25;
73973;PMS5003;62336;-26.094;27.994;2023-08-06T03:14:18;28;24;
73973;PMS5003;62336;-26.094;27.994;2023-08-06T03:16:43;22;22;
73973;PMS5003;62336;-26.094;27.994;2023-08-06T03:19:09;25;23;
73973;PMS5003;62336;-26.094;27.994;2023-08-06T03:21:34;21;20;
73973;PMS5003;62336;-26.094;27.994;2023-08-06T03:23:59;26;22;
73973;PMS5003;62336;-26.094;27.994;2023-08-06T03:26:24;19;19;
73973;PMS5003;62336;-26.094;27.994;2023-08-06T03:28:50;19;19;
73973;PMS5003;62336;-26.094;27.994;2023-08-06T03:31:15;22;22;
73973;PMS5003;62336;-26.094;27.994;2023-08-06T03:33:41;22;20;
73973;PMS5003;62336;-26.094;27.994;2023-08-06T03:36:08;24;22;
73973;PMS5003;62336;-26.094;27.994;2023-08-06T03:38:32;20;20;
73973;PMS5003;62336;-26.094;27.994;2023-08-06T03:40:58;17;17;
73973;PMS5003;62336;-26.094;27.994;2023-08-06T03:43:23;20;19;
73973;PMS5003;62336;-26.094;27.994;2023-08-06T03:45:49;20;18;
73973;PMS5003;62336;-26.094;27.994;2023-08-06T03:48:15;21;20;
73973;PMS5003;62336;-26.094;27.994;2023-08-06T03:50:40;20;20;
73973;PMS5003;62336;-26.094;27.994;2023-08-06T03:53:06;19;19;
73973;PMS5003;62336;-26.094;27.994;2023-08-06T03:55:31;21;21;
73973;PMS5003;62336;-26.094;27.994;2023-08-06T03:57:56;19;19;
73973;PMS5003;62336;-26.094;27.994;2023-08-06T04:00:22;23;23;
73973;PMS5003;62336;-26.094;27.994;2023-08-06T04:02:46;20;19;
73973;PMS5003;62336;-26.094;27.994;2023-08-06T04:05:12;22;21;
73973;PMS5003;62336;-26.094;27.994;2023-08-06T04:07:37;18;18;
73973;PMS5003;62336;-26.094;27.994;2023-08-06T04:10:04;23;22;
73973;PMS5003;62336;-26.094;27.994;2023-08-06T04:12:29;20;20;
73973;PMS5003;62336;-26.094;27.994;2023-08-06T04:14:54;19;17;
73973;PMS5003;62336;-26.094;27.994;2023-08-06T04:17:18;22;21;
73973;PMS5003;62336;-26.094;27.994;2023-08-06T04:19:44;22;21;
73973;PMS5003;62336;-26.094;27.994;2023-08-06T04:22:09;23;19;
73973;PMS5003;62336;-26.094;27.994;2023-08-06T04:24:35;18;17;
73973;PMS5003;62336;-26.094;27.994;2023-08-06T04:27:00;19;19;
73973;PMS5003;62336;-26.094;27.994;2023-08-06T04:29:25;20;20;
73973;PMS5003;62336;-26.094;27.994;2023-08-06T04:31:51;20;20;
73973;PMS5003;62336;-26.094;27.994;2023-08-06T04:34:16;17;16;
73973;PMS5003;62336;-26.094;27.994;2023-08-06T04:36:41;19;18;
73973;PMS5003;62336;-26.094;27.994;2023-08-06T04:39:06;18;18;
73973;PMS5003;62336;-26.094;27.994;2023-08-06T04:41:32;20;19;
73973;PMS5003;62336;-26.094;27.994;2023-08-06T04:43:57;19;19;
73973;PMS5003;62336;-26.094;27.994;2023-08-06T04:46:22;21;18;
73973;PMS5003;62336;-26.094;27.994;2023-08-06T04:48:48;17;17;
73973;PMS5003;62336;-26.094;27.994;2023-08-06T04:51:13;20;19;
73973;PMS5003;62336;-26.094;27.994;2023-08-06T04:53:38;16;15;
73973;PMS5003;62336;-26.094;27.994;2023-08-06T04:56:03;13;13;
73973;PMS5003;62336;-26.094;27.994;2023-08-06T04:58:28;16;16;
73973;PMS5003;62336;-26.094;27.994;2023-08-06T05:00:54;15;13;
73973;PMS5003;62336;-26.094;27.994;2023-08-06T05:03:19;14;14;
73973;PMS5003;62336;-26.094;27.994;2023-08-06T05:05:44;15;15;
73973;PMS5003;62336;-26.094;27.994;2023-08-06T05:08:13;15;14;
73973;PMS5003;62336;-26.094;27.994;2023-08-06T05:10:34;16;15;
73973;PMS5003;62336;-26.094;27.994;2023-08-06T05:12:59;13;13;
73973;PMS5003;62336;-26.094;27.994;2023-08-06T05:15:24;13;13;
73973;PMS5003;62336;-26.094;27.994;2023-08-06T05:17:49;16;12;
73973;PMS5003;62336;-26.094;27.994;2023-08-06T05:20:15;14;14;
73973;PMS5003;62336;-26.094;27.994;2023-08-06T05:22:40;15;15;
73973;PMS5003;62336;-26.094;27.994;2023-08-06T05:25:06;16;14;
73973;PMS5003;62336;-26.094;27.994;2023-08-06T05:27:30;34;28;
73973;PMS5003;62336;-26.094;27.994;2023-08-06T05:29:56;22;20;
73973;PMS5003;62336;-26.094;27.994;2023-08-06T05:32:21;16;15;
73973;PMS5003;62336;-26.094;27.994;2023-08-06T05:34:47;17;16;
73973;PMS5003;62336;-26.094;27.994;2023-08-06T05:37:12;18;15;
73973;PMS5003;62336;-26.094;27.994;2023-08-06T05:39:37;15;15;
73973;PMS5003;62336;-26.094;27.994;2023-08-06T05:42:03;16;16;
73973;PMS5003;62336;-26.094;27.994;2023-08-06T05:44:28;18;17;
73973;PMS5003;62336;-26.094;27.994;2023-08-06T05:46:54;13;13;
73973;PMS5003;62336;-26.094;27.994;2023-08-06T05:49:18;16;14;
73973;PMS5003;62336;-26.094;27.994;2023-08-06T05:51:44;13;13;
73973;PMS5003;62336;-26.094;27.994;2023-08-06T05:54:09;16;15;
73973;PMS5003;62336;-26.094;27.994;2023-08-06T05:56:35;19;17;
73973;PMS5003;62336;-26.094;27.994;2023-08-06T05:58:59;27;24;
73973;PMS5003;62336;-26.094;27.994;2023-08-06T06:01:25;36;36;
73973;PMS5003;62336;-26.094;27.994;2023-08-06T06:03:50;51;46;
73973;PMS5003;62336;-26.094;27.994;2023-08-06T06:06:16;57;55;
73973;PMS5003;62336;-26.094;27.994;2023-08-06T06:08:41;65;63;
73973;PMS5003;62336;-26.094;27.994;2023-08-06T06:11:07;142;129;
73973;PMS5003;62336;-26.094;27.994;2023-08-06T06:13:33;196;174;
73973;PMS5003;62336;-26.094;27.994;2023-08-06T06:15:57;158;142;
73973;PMS5003;62336;-26.094;27.994;2023-08-06T06:18:23;97;85;
73973;PMS5003;62336;-26.094;27.994;2023-08-06T06:20:48;60;54;
73973;PMS5003;62336;-26.094;27.994;2023-08-06T06:23:13;38;37;
73973;PMS5003;62336;-26.094;27.994;2023-08-06T06:25:42;28;26;
73973;PMS5003;62336;-26.094;27.994;2023-08-06T06:28:04;11;11;
73973;PMS5003;62336;-26.094;27.994;2023-08-06T06:30:29;7;7;
73973;PMS5003;62336;-26.094;27.994;2023-08-06T06:32:54;9;8;
73973;PMS5003;62336;-26.094;27.994;2023-08-06T06:35:19;9;9;
73973;PMS5003;62336;-26.094;27.994;2023-08-06T06:37:44;9;9;
73973;PMS5003;62336;-26.094;27.994;2023-08-06T06:40:10;8;8;
73973;PMS5003;62336;-26.094;27.994;2023-08-06T06:42:35;9;9;
73973;PMS5003;62336;-26.094;27.994;2023-08-06T06:45:00;8;8;
73973;PMS5003;62336;-26.094;27.994;2023-08-06T06:47:25;7;7;
73973;PMS5003;62336;-26.094;27.994;2023-08-06T06:49:51;11;11;
73973;PMS5003;62336;-26.094;27.994;2023-08-06T06:52:16;8;7;
73973;PMS5003;62336;-26.094;27.994;2023-08-06T06:54:40;8;8;
73973;PMS5003;62336;-26.094;27.994;2023-08-06T06:57:06;8;8;
73973;PMS5003;62336;-26.094;27.994;2023-08-06T06:59:31;13;13;
73973;PMS5003;62336;-26.094;27.994;2023-08-06T07:01:57;10;9;
73973;PMS5003;62336;-26.094;27.994;2023-08-06T07:04:22;9;9;
73973;PMS5003;62336;-26.094;27.994;2023-08-06T07:06:47;9;9;
73973;PMS5003;62336;-26.094;27.994;2023-08-06T07:09:12;5;5;
73973;PMS5003;62336;-26.094;27.994;2023-08-06T07:11:37;5;5;
73973;PMS5003;62336;-26.094;27.994;2023-08-06T07:14:03;10;9;
73973;PMS5003;62336;-26.094;27.994;2023-08-06T07:16:27;12;11;
73973;PMS5003;62336;-26.094;27.994;2023-08-06T07:18:53;8;8;
73973;PMS5003;62336;-26.094;27.994;2023-08-06T07:21:17;6;5;
73973;PMS5003;62336;-26.094;27.994;2023-08-06T07:23:42;11;10;
73973;PMS5003;62336;-26.094;27.994;2023-08-06T07:26:08;9;8;
73973;PMS5003;62336;-26.094;27.994;2023-08-06T07:28:33;9;9;
73973;PMS5003;62336;-26.094;27.994;2023-08-06T07:30:58;8;8;
73973;PMS5003;62336;-26.094;27.994;2023-08-06T07:33:23;10;10;
73973;PMS5003;62336;-26.094;27.994;2023-08-06T07:35:48;9;8;
73973;PMS5003;62336;-26.094;27.994;2023-08-06T07:38:13;9;9;
73973;PMS5003;62336;-26.094;27.994;2023-08-06T07:40:39;12;11;
73973;PMS5003;62336;-26.094;27.994;2023-08-06T07:43:04;10;10;
73973;PMS5003;62336;-26.094;27.994;2023-08-06T07:45:32;11;10;
73973;PMS5003;62336;-26.094;27.994;2023-08-06T07:47:54;13;13;
73973;PMS5003;62336;-26.094;27.994;2023-08-06T07:50:20;13;12;
73973;PMS5003;62336;-26.094;27.994;2023-08-06T07:52:45;14;14;
73973;PMS5003;62336;-26.094;27.994;2023-08-06T07:55:10;18;16;
73973;PMS5003;62336;-26.094;27.994;2023-08-06T07:57:36;21;20;
73973;PMS5003;62336;-26.094;27.994;2023-08-06T08:00:01;34;31;
73973;PMS5003;62336;-26.094;27.994;2023-08-06T08:02:27;26;23;
73973;PMS5003;62336;-26.094;27.994;2023-08-06T08:04:51;29;27;
73973;PMS5003;62336;-26.094;27.994;2023-08-06T08:07:17;44;41;
73973;PMS5003;62336;-26.094;27.994;2023-08-06T08:09:42;47;44;
73973;PMS5003;62336;-26.094;27.994;2023-08-06T08:12:08;51;48;
73973;PMS5003;62336;-26.094;27.994;2023-08-06T08:14:33;47;44;
73973;PMS5003;62336;-26.094;27.994;2023-08-06T08:16:58;34;33;
73973;PMS5003;62336;-26.094;27.994;2023-08-06T08:19:23;38;36;
73973;PMS5003;62336;-26.094;27.994;2023-08-06T08:21:48;35;33;
73973;PMS5003;62336;-26.094;27.994;2023-08-06T08:24:14;33;30;
73973;PMS5003;62336;-26.094;27.994;2023-08-06T08:26:39;28;27;
73973;PMS5003;62336;-26.094;27.994;2023-08-06T08:29:04;32;27;
73973;PMS5003;62336;-26.094;27.994;2023-08-06T08:31:30;37;35;
73973;PMS5003;62336;-26.094;27.994;2023-08-06T08:33:56;33;31;
73973;PMS5003;62336;-26.094;27.994;2023-08-06T08:36:20;34;32;
73973;PMS5003;62336;-26.094;27.994;2023-08-06T08:38:46;33;31;
73973;PMS5003;62336;-26.094;27.994;2023-08-06T08:41:11;28;28;
73973;PMS5003;62336;-26.094;27.994;2023-08-06T08:43:36;34;32;
73973;PMS5003;62336;-26.094;27.994;2023-08-06T08:46:02;28;27;
73973;PMS5003;62336;-26.094;27.994;2023-08-06T08:48:27;26;25;
73973;PMS5003;62336;-26.094;27.994;2023-08-06T08:50:53;26;25;
73973;PMS5003;62336;-26.094;27.994;2023-08-06T08:53:18;26;25;
73973;PMS5003;62336;-26.094;27.994;2023-08-06T08:55:43;29;28;
73973;PMS5003;62336;-26.094;27.994;2023-08-06T08:58:09;31;30;
73973;PMS5003;62336;-26.094;27.994;2023-08-06T09:00:34;28;26;
73973;PMS5003;62336;-26.094;27.994;2023-08-06T09:03:00;29;29;
73973;PMS5003;62336;-26.094;27.994;2023-08-06T09:05:26;24;24;
73973;PMS5003;62336;-26.094;27.994;2023-08-06T09:07:50;25;24;
73973;PMS5003;62336;-26.094;27.994;2023-08-06T09:10:17;25;24;
73973;PMS5003;62336;-26.094;27.994;2023-08-06T09:12:42;26;26;
73973;PMS5003;62336;-26.094;27.994;2023-08-06T09:15:08;29;28;
73973;PMS5003;62336;-26.094;27.994;2023-08-06T09:17:33;27;25;
73973;PMS5003;62336;-26.094;27.994;2023-08-06T09:19:59;26;25;
73973;PMS5003;62336;-26.094;27.994;2023-08-06T09:22:24;26;24;
73973;PMS5003;62336;-26.094;27.994;2023-08-06T09:24:49;27;27;
73973;PMS5003;62336;-26.094;27.994;2023-08-06T09:27:15;25;25;
73973;PMS5003;62336;-26.094;27.994;2023-08-06T09:29:40;27;24;
73973;PMS5003;62336;-26.094;27.994;2023-08-06T09:32:05;31;28;
73973;PMS5003;62336;-26.094;27.994;2023-08-06T09:34:30;25;23;
73973;PMS5003;62336;-26.094;27.994;2023-08-06T09:36:56;29;27;
73973;PMS5003;62336;-26.094;27.994;2023-08-06T09:39:26;27;25;
73973;PMS5003;62336;-26.094;27.994;2023-08-06T09:41:47;26;26;
73973;PMS5003;62336;-26.094;27.994;2023-08-06T09:44:16;26;26;
73973;PMS5003;62336;-26.094;27.994;2023-08-06T09:46:38;27;27;
73973;PMS5003;62336;-26.094;27.994;2023-08-06T09:49:05;27;25;
73973;PMS5003;62336;-26.094;27.994;2023-08-06T09:51:30;28;24;
73973;PMS5003;62336;-26.094;27.994;2023-08-06T09:53:55;24;24;
73973;PMS5003;62336;-26.094;27.994;2023-08-06T09:56:21;27;26;
73973;PMS5003;62336;-26.094;27.994;2023-08-06T09:58:47;26;25;
73973;PMS5003;62336;-26.094;27.994;2023-08-06T10:01:11;25;24;
73973;PMS5003;62336;-26.094;27.994;2023-08-06T10:03:37;25;24;
73973;PMS5003;62336;-26.094;27.994;2023-08-06T10:06:03;26;25;
73973;PMS5003;62336;-26.094;27.994;2023-08-06T10:08:28;27;25;
73973;PMS5003;62336;-26.094;27.994;2023-08-06T10:10:53;26;26;
73973;PMS5003;62336;-26.094;27.994;2023-08-06T10:13:19;24;23;
73973;PMS5003;62336;-26.094;27.994;2023-08-06T10:15:45;27;26;
73973;PMS5003;62336;-26.094;27.994;2023-08-06T10:18:09;26;25;
73973;PMS5003;62336;-26.094;27.994;2023-08-06T10:20:35;26;26;
73973;PMS5003;62336;-26.094;27.994;2023-08-06T10:23:01;28;26;
73973;PMS5003;62336;-26.094;27.994;2023-08-06T10:25:26;22;21;
73973;PMS5003;62336;-26.094;27.994;2023-08-06T10:27:55;29;27;
73973;PMS5003;62336;-26.094;27.994;2023-08-06T10:30:21;26;25;
73973;PMS5003;62336;-26.094;27.994;2023-08-06T10:32:47;26;25;
73973;PMS5003;62336;-26.094;27.994;2023-08-06T10:35:09;29;28;
73973;PMS5003;62336;-26.094;27.994;2023-08-06T10:37:36;26;25;
73973;PMS5003;62336;-26.094;27.994;2023-08-06T10:39:59;24;24;
73973;PMS5003;62336;-26.094;27.994;2023-08-06T10:42:27;26;25;
73973;PMS5003;62336;-26.094;27.994;2023-08-06T10:49:40;24;24;
73973;PMS5003;62336;-26.094;27.994;2023-08-06T10:52:06;27;25;
73973;PMS5003;62336;-26.094;27.994;2023-08-06T10:54:31;23;23;
73973;PMS5003;62336;-26.094;27.994;2023-08-06T10:56:56;27;25;
73973;PMS5003;62336;-26.094;27.994;2023-08-06T10:59:20;25;24;
73973;PMS5003;62336;-26.094;27.994;2023-08-06T11:01:46;26;24;
73973;PMS5003;62336;-26.094;27.994;2023-08-06T11:04:12;28;26;
73973;PMS5003;62336;-26.094;27.994;2023-08-06T11:06:36;27;25;
73973;PMS5003;62336;-26.094;27.994;2023-08-06T11:09:05;26;26;
73973;PMS5003;62336;-26.094;27.994;2023-08-06T11:11:27;20;19;
73973;PMS5003;62336;-26.094;27.994;2023-08-06T11:13:53;28;27;
73973;PMS5003;62336;-26.094;27.994;2023-08-06T11:16:19;31;29;
73973;PMS5003;62336;-26.094;27.994;2023-08-06T11:18:43;29;26;
73973;PMS5003;62336;-26.094;27.994;2023-08-06T11:21:08;27;26;
73973;PMS5003;62336;-26.094;27.994;2023-08-06T11:23:34;29;29;
73973;PMS5003;62336;-26.094;27.994;2023-08-06T11:25:59;34;33;
73973;PMS5003;62336;-26.094;27.994;2023-08-06T11:28:25;33;32;
73973;PMS5003;62336;-26.094;27.994;2023-08-06T11:30:50;25;25;
73973;PMS5003;62336;-26.094;27.994;2023-08-06T11:33:20;30;29;
73973;PMS5003;62336;-26.094;27.994;2023-08-06T11:35:40;28;27;
73973;PMS5003;62336;-26.094;27.994;2023-08-06T11:38:06;29;28;
73973;PMS5003;62336;-26.094;27.994;2023-08-06T11:40:32;21;21;
73973;PMS5003;62336;-26.094;27.994;2023-08-06T11:42:57;27;26;
73973;PMS5003;62336;-26.094;27.994;2023-08-06T11:45:22;25;25;
73973;PMS5003;62336;-26.094;27.994;2023-08-06T11:47:50;24;23;
73973;PMS5003;62336;-26.094;27.994;2023-08-06T11:52:39;24;24;
73973;PMS5003;62336;-26.094;27.994;2023-08-06T11:55:03;30;29;
73973;PMS5003;62336;-26.094;27.994;2023-08-06T11:57:29;28;26;
73973;PMS5003;62336;-26.094;27.994;2023-08-06T11:59:54;24;24;
73973;PMS5003;62336;-26.094;27.994;2023-08-06T12:02:20;30;29;
73973;PMS5003;62336;-26.094;27.994;2023-08-06T12:07:09;28;26;
73973;PMS5003;62336;-26.094;27.994;2023-08-06T12:09:35;30;30;
73973;PMS5003;62336;-26.094;27.994;2023-08-06T12:12:00;33;31;
73973;PMS5003;62336;-26.094;27.994;2023-08-06T12:14:26;29;27;
73973;PMS5003;62336;-26.094;27.994;2023-08-06T12:16:52;29;29;
73973;PMS5003;62336;-26.094;27.994;2023-08-06T12:19:17;29;28;
73973;PMS5003;62336;-26.094;27.994;2023-08-06T12:21:42;29;29;
73973;PMS5003;62336;-26.094;27.994;2023-08-06T12:24:07;36;34;
73973;PMS5003;62336;-26.094;27.994;2023-08-06T12:26:32;29;28;
73973;PMS5003;62336;-26.094;27.994;2023-08-06T12:28:59;30;29;
73973;PMS5003;62336;-26.094;27.994;2023-08-06T12:31:23;32;32;
73973;PMS5003;62336;-26.094;27.994;2023-08-06T12:33:49;30;28;
73973;PMS5003;62336;-26.094;27.994;2023-08-06T12:36:14;31;29;
73973;PMS5003;62336;-26.094;27.994;2023-08-06T12:38:40;34;32;
73973;PMS5003;62336;-26.094;27.994;2023-08-06T12:41:06;46;45;
73973;PMS5003;62336;-26.094;27.994;2023-08-06T12:43:31;34;32;
73973;PMS5003;62336;-26.094;27.994;2023-08-06T12:45:57;34;32;
73973;PMS5003;62336;-26.094;27.994;2023-08-06T12:48:22;29;29;
73973;PMS5003;62336;-26.094;27.994;2023-08-06T12:50:48;30;30;
73973;PMS5003;62336;-26.094;27.994;2023-08-06T12:53:13;32;30;
73973;PMS5003;62336;-26.094;27.994;2023-08-06T12:55:38;34;33;
73973;PMS5003;62336;-26.094;27.994;2023-08-06T12:58:04;35;33;
73973;PMS5003;62336;-26.094;27.994;2023-08-06T13:00:29;35;34;
73973;PMS5003;62336;-26.094;27.994;2023-08-06T13:02:55;34;32;
73973;PMS5003;62336;-26.094;27.994;2023-08-06T13:05:21;32;31;
73973;PMS5003;62336;-26.094;27.994;2023-08-06T13:07:46;31;31;
73973;PMS5003;62336;-26.094;27.994;2023-08-06T13:10:11;36;35;
73973;PMS5003;62336;-26.094;27.994;2023-08-06T13:12:36;33;33;
73973;PMS5003;62336;-26.094;27.994;2023-08-06T13:15:01;32;32;
73973;PMS5003;62336;-26.094;27.994;2023-08-06T13:17:27;34;33;
73973;PMS5003;62336;-26.094;27.994;2023-08-06T13:19:52;32;31;
73973;PMS5003;62336;-26.094;27.994;2023-08-06T13:22:17;31;29;
73973;PMS5003;62336;-26.094;27.994;2023-08-06T13:24:43;32;32;
73973;PMS5003;62336;-26.094;27.994;2023-08-06T13:27:09;36;34;
73973;PMS5003;62336;-26.094;27.994;2023-08-06T13:29:35;33;32;
73973;PMS5003;62336;-26.094;27.994;2023-08-06T13:32:00;31;29;
73973;PMS5003;62336;-26.094;27.994;2023-08-06T13:34:25;38;34;
73973;PMS5003;62336;-26.094;27.994;2023-08-06T13:36:50;35;31;
73973;PMS5003;62336;-26.094;27.994;2023-08-06T13:39:16;44;40;
73973;PMS5003;62336;-26.094;27.994;2023-08-06T13:41:41;37;33;
73973;PMS5003;62336;-26.094;27.994;2023-08-06T13:44:06;35;33;
73973;PMS5003;62336;-26.094;27.994;2023-08-06T13:46:32;34;30;
73973;PMS5003;62336;-26.094;27.994;2023-08-06T13:48:57;38;33;
73973;PMS5003;62336;-26.094;27.994;2023-08-06T13:51:23;31;29;
73973;PMS5003;62336;-26.094;27.994;2023-08-06T13:53:48;32;32;
73973;PMS5003;62336;-26.094;27.994;2023-08-06T13:56:13;30;29;
73973;PMS5003;62336;-26.094;27.994;2023-08-06T13:58:38;33;33;
73973;PMS5003;62336;-26.094;27.994;2023-08-06T14:01:04;32;31;
73973;PMS5003;62336;-26.094;27.994;2023-08-06T14:03:29;32;31;
73973;PMS5003;62336;-26.094;27.994;2023-08-06T14:05:55;32;30;
73973;PMS5003;62336;-26.094;27.994;2023-08-06T14:08:20;28;27;
73973;PMS5003;62336;-26.094;27.994;2023-08-06T14:10:45;29;28;
73973;PMS5003;62336;-26.094;27.994;2023-08-06T14:13:11;35;33;
73973;PMS5003;62336;-26.094;27.994;2023-08-06T14:15:36;32;31;
73973;PMS5003;62336;-26.094;27.994;2023-08-06T14:18:01;31;28;
73973;PMS5003;62336;-26.094;27.994;2023-08-06T14:20:26;36;34;
73973;PMS5003;62336;-26.094;27.994;2023-08-06T14:22:51;31;28;
73973;PMS5003;62336;-26.094;27.994;2023-08-06T14:25:17;33;31;
73973;PMS5003;62336;-26.094;27.994;2023-08-06T14:27:42;30;29;
73973;PMS5003;62336;-26.094;27.994;2023-08-06T14:30:08;32;31;
73973;PMS5003;62336;-26.094;27.994;2023-08-06T14:32:33;31;30;
73973;PMS5003;62336;-26.094;27.994;2023-08-06T14:34:59;29;28;
73973;PMS5003;62336;-26.094;27.994;2023-08-06T14:37:24;31;30;
73973;PMS5003;62336;-26.094;27.994;2023-08-06T14:39:50;30;29;
73973;PMS5003;62336;-26.094;27.994;2023-08-06T14:42:15;33;29;
73973;PMS5003;62336;-26.094;27.994;2023-08-06T14:44:40;34;31;
73973;PMS5003;62336;-26.094;27.994;2023-08-06T14:47:06;27;27;
73973;PMS5003;62336;-26.094;27.994;2023-08-06T14:49:31;26;25;
73973;PMS5003;62336;-26.094;27.994;2023-08-06T14:51:57;28;27;
73973;PMS5003;62336;-26.094;27.994;2023-08-06T14:54:23;28;27;
73973;PMS5003;62336;-26.094;27.994;2023-08-06T14:56:48;26;25;
73973;PMS5003;62336;-26.094;27.994;2023-08-06T14:59:14;30;29;
73973;PMS5003;62336;-26.094;27.994;2023-08-06T15:01:39;31;30;
73973;PMS5003;62336;-26.094;27.994;2023-08-06T15:04:05;27;26;
73973;PMS5003;62336;-26.094;27.994;2023-08-06T15:06:31;26;25;
73973;PMS5003;62336;-26.094;27.994;2023-08-06T15:08:56;29;29;
73973;PMS5003;62336;-26.094;27.994;2023-08-06T15:11:21;28;28;
73973;PMS5003;62336;-26.094;27.994;2023-08-06T15:13:47;31;29;
73973;PMS5003;62336;-26.094;27.994;2023-08-06T15:16:12;26;24;
73973;PMS5003;62336;-26.094;27.994;2023-08-06T15:18:37;31;26;
73973;PMS5003;62336;-26.094;27.994;2023-08-06T15:21:02;25;24;
73973;PMS5003;62336;-26.094;27.994;2023-08-06T15:23:27;26;25;
73973;PMS5003;62336;-26.094;27.994;2023-08-06T15:25:52;27;27;
73973;PMS5003;62336;-26.094;27.994;2023-08-06T15:28:17;31;30;
73973;PMS5003;62336;-26.094;27.994;2023-08-06T15:30:45;29;24;
73973;PMS5003;62336;-26.094;27.994;2023-08-06T15:33:08;27;26;
73973;PMS5003;62336;-26.094;27.994;2023-08-06T15:35:34;38;36;
73973;PMS5003;62336;-26.094;27.994;2023-08-06T15:37:59;30;29;
73973;PMS5003;62336;-26.094;27.994;2023-08-06T15:40:24;28;27;
73973;PMS5003;62336;-26.094;27.994;2023-08-06T15:42:50;28;28;